createdAt,value
2023-04-09T00:01:26.079Z,99954.84
2023-04-09T00:06:28.968Z,99952.78
2023-04-09T00:11:32.006Z,99948.25
2023-04-09T00:16:36.289Z,99948.66
2023-04-09T00:21:39.234Z,99947.97
2023-04-09T00:26:42.112Z,99952.44
2023-04-09T00:31:46.362Z,99953.69
2023-04-09T00:36:49.396Z,99948.31
2023-04-09T00:41:57.274Z,99936.06
2023-04-09T00:47:01.799Z,99939.59
2023-04-09T00:52:05.012Z,99939.00
2023-04-09T00:57:08.055Z,99937.97
2023-04-09T01:02:12.966Z,99952.91
2023-04-09T01:07:23.302Z,99951.75
2023-04-09T01:12:33.985Z,99955.63
2023-04-09T01:17:45.302Z,99952.81
2023-04-09T01:23:02.271Z,99950.78
2023-04-09T01:28:16.508Z,99959.47
2023-04-09T01:33:21.441Z,99959.84
2023-04-09T01:38:25.638Z,99959.56
2023-04-09T01:43:31.549Z,99962.75
2023-04-09T01:48:35.438Z,99955.13
2023-04-09T01:53:38.524Z,99966.75
2023-04-09T01:58:42.953Z,99963.16
2023-04-09T02:03:50.038Z,99977.13
2023-04-09T02:08:54.726Z,99973.38
2023-04-09T02:13:59.664Z,99972.34
2023-04-09T02:19:02.675Z,99968.00
2023-04-09T02:24:05.937Z,99973.09
2023-04-09T02:29:10.289Z,99974.94
2023-04-09T02:34:13.153Z,99970.56
2023-04-09T02:39:16.173Z,99973.69
2023-04-09T02:44:20.583Z,99976.06
2023-04-09T02:49:23.723Z,99970.09
2023-04-09T02:54:26.670Z,99966.97
2023-04-09T02:59:32.967Z,99964.81
2023-04-09T03:04:35.995Z,99979.03
2023-04-09T03:09:38.963Z,99972.75
2023-04-09T03:14:43.212Z,99981.19
2023-04-09T03:19:46.153Z,99974.06
2023-04-09T03:24:51.052Z,99980.88
2023-04-09T03:29:58.184Z,99969.47
2023-04-09T03:35:10.478Z,99971.88
2023-04-09T03:40:15.480Z,99972.81
2023-04-09T03:45:19.786Z,99974.00
2023-04-09T03:50:25.155Z,99972.22
2023-04-09T03:55:31.367Z,99977.84
2023-04-09T04:00:39.211Z,99973.75
2023-04-09T04:06:06.425Z,99973.63
2023-04-09T04:11:20.431Z,99969.84
2023-04-09T04:16:25.712Z,99974.50
2023-04-09T04:21:29.983Z,99976.91
2023-04-09T04:26:37.032Z,99982.47
2023-04-09T04:31:41.386Z,99976.47
2023-04-09T04:36:45.160Z,99974.56
2023-04-09T04:41:48.465Z,99987.78
2023-04-09T04:46:58.455Z,99983.72
2023-04-09T04:52:01.433Z,99990.41
2023-04-09T04:57:04.789Z,99992.59
2023-04-09T05:02:16.305Z,99988.38
2023-04-09T05:07:45.631Z,99984.28
2023-04-09T05:12:48.910Z,99985.91
2023-04-09T05:18:02.712Z,99989.47
2023-04-09T05:23:06.246Z,99989.00
2023-04-09T05:28:16.829Z,99987.47
2023-04-09T05:33:22.477Z,99992.44
2023-04-09T05:38:26.526Z,100005.91
2023-04-09T05:43:33.422Z,100003.06
2023-04-09T05:48:37.960Z,100007.38
2023-04-09T05:53:42.825Z,100009.00
2023-04-09T05:58:47.671Z,100012.56
2023-04-09T06:03:54.087Z,100012.06
2023-04-09T06:08:59.161Z,100009.84
2023-04-09T06:14:02.058Z,99999.97
2023-04-09T06:19:06.290Z,99998.00
2023-04-09T06:24:09.237Z,99999.66
2023-04-09T06:29:12.149Z,99991.75
2023-04-09T06:34:16.368Z,99993.56
2023-04-09T06:39:19.297Z,99999.72
2023-04-09T06:44:24.311Z,100000.22
2023-04-09T06:49:28.904Z,99998.41
2023-04-09T06:54:31.828Z,100007.88
2023-04-09T06:59:34.787Z,100010.34
2023-04-09T07:04:39.159Z,100002.22
2023-04-09T07:09:42.190Z,100014.56
2023-04-09T07:14:45.039Z,100014.81
2023-04-09T07:19:49.345Z,100011.94
2023-04-09T07:24:55.139Z,100011.59
2023-04-09T07:29:59.523Z,100006.97
2023-04-09T07:35:05.077Z,100017.41
2023-04-09T07:40:09.320Z,100011.03
2023-04-09T07:45:12.229Z,100006.31
2023-04-09T07:50:16.930Z,100016.72
2023-04-09T07:55:20.285Z,100015.28
2023-04-09T08:00:23.330Z,100013.03
2023-04-09T08:05:28.405Z,100018.13
2023-04-09T08:10:31.310Z,100024.72
2023-04-09T08:15:34.202Z,100013.66
2023-04-09T08:20:44.820Z,100013.00
2023-04-09T08:25:47.838Z,100006.44
2023-04-09T08:30:50.857Z,100004.50
2023-04-09T08:35:55.074Z,100009.59
2023-04-09T08:40:57.964Z,100020.31
2023-04-09T08:46:03.169Z,100019.41
2023-04-09T08:51:07.814Z,100028.59
2023-04-09T08:56:10.829Z,100044.09
2023-04-09T09:01:21.464Z,100036.22
2023-04-09T09:06:28.678Z,100018.75
2023-04-09T09:11:32.010Z,100029.84
2023-04-09T09:16:35.954Z,100028.53
2023-04-09T09:21:40.742Z,100030.78
2023-04-09T09:26:43.774Z,100039.69
2023-04-09T09:31:51.591Z,100041.25
2023-04-09T09:36:55.910Z,100023.22
2023-04-09T09:42:09.042Z,100018.16
2023-04-09T09:47:14.293Z,100020.06
2023-04-09T09:52:25.546Z,100010.78
2023-04-09T09:57:32.589Z,100008.16
2023-04-09T10:02:44.938Z,100010.63
2023-04-09T10:07:50.398Z,100009.13
2023-04-09T10:12:53.589Z,100000.50
2023-04-09T10:17:56.936Z,99994.47
2023-04-09T10:23:07.026Z,99986.53
2023-04-09T10:28:17.528Z,99977.03
2023-04-09T10:33:26.514Z,99988.69
2023-04-09T10:38:38.414Z,99988.09
2023-04-09T10:43:42.090Z,99983.75
2023-04-09T10:48:45.008Z,99977.25
2023-04-09T10:53:54.274Z,99971.44
2023-04-09T10:58:57.162Z,99971.38
2023-04-09T11:04:10.883Z,99970.56
2023-04-09T11:09:15.226Z,99958.41
2023-04-09T11:14:20.732Z,99969.69
2023-04-09T11:19:24.440Z,99963.28
2023-04-09T11:24:40.787Z,99969.59
2023-04-09T11:29:43.703Z,99969.34
2023-04-09T11:34:46.566Z,99975.88
2023-04-09T11:39:55.581Z,99969.34
2023-04-09T11:45:01.063Z,99972.38
2023-04-09T11:50:04.212Z,99960.78
2023-04-09T11:55:09.705Z,99961.25
2023-04-09T12:00:14.589Z,99961.66
2023-04-09T12:05:24.690Z,99958.72
2023-04-09T12:10:33.138Z,99959.41
2023-04-09T12:15:37.085Z,99968.13
2023-04-09T12:20:42.311Z,99959.41
2023-04-09T12:25:47.669Z,99944.50
2023-04-09T12:30:52.109Z,99958.03
2023-04-09T12:35:56.082Z,99957.19
2023-04-09T12:41:01.265Z,99956.81
2023-04-09T12:46:04.519Z,99951.19
2023-04-09T12:51:07.664Z,99959.91
2023-04-09T12:56:11.967Z,99947.69
2023-04-09T13:01:15.044Z,99945.59
2023-04-09T13:06:17.996Z,99947.31
2023-04-09T13:11:22.296Z,99941.19
2023-04-09T13:16:26.050Z,99927.16
2023-04-09T13:21:28.980Z,99928.50
2023-04-09T13:26:33.271Z,99930.13
2023-04-09T13:31:36.904Z,99923.03
2023-04-09T13:36:39.803Z,99919.22
2023-04-09T13:41:44.648Z,99908.16
2023-04-09T13:46:47.521Z,99921.78
2023-04-09T13:51:50.938Z,99906.41
2023-04-09T13:56:55.447Z,99914.16
2023-04-09T14:01:58.669Z,99905.13
2023-04-09T14:07:01.726Z,99905.88
2023-04-09T14:12:06.468Z,99884.56
2023-04-09T14:17:09.348Z,99898.25
2023-04-09T14:22:12.548Z,99898.50
2023-04-09T14:27:16.873Z,99898.31
2023-04-09T14:32:20.096Z,99901.34
2023-04-09T14:37:23.099Z,99893.28
2023-04-09T14:42:27.400Z,99895.44
2023-04-09T14:47:30.483Z,99875.06
2023-04-09T14:52:33.416Z,99885.28
2023-04-09T14:57:37.718Z,99875.69
2023-04-09T15:02:41.549Z,99870.72
2023-04-09T15:07:44.743Z,99875.41
2023-04-09T15:12:49.064Z,99879.78
2023-04-09T15:17:52.123Z,99872.63
2023-04-09T15:22:55.014Z,99874.19
2023-04-09T15:27:59.995Z,99858.66
2023-04-09T15:33:03.040Z,99873.44
2023-04-09T15:38:06.056Z,99862.81
2023-04-09T15:43:10.402Z,99862.75
2023-04-09T15:48:13.416Z,99863.09
2023-04-09T15:53:16.748Z,99864.78
2023-04-09T15:58:21.095Z,99858.66
2023-04-09T16:03:23.977Z,99863.81
2023-04-09T16:08:26.931Z,99863.63
2023-04-09T16:13:31.318Z,99861.09
2023-04-09T16:18:34.838Z,99860.88
2023-04-09T16:23:38.463Z,99863.09
2023-04-09T16:28:42.760Z,99867.97
2023-04-09T16:33:45.862Z,99863.34
2023-04-09T16:38:49.943Z,99861.72
2023-04-09T16:43:54.332Z,99862.13
2023-04-09T16:48:57.234Z,99864.94
2023-04-09T16:54:00.361Z,99868.81
2023-04-09T16:59:04.749Z,99871.22
2023-04-09T17:04:07.850Z,99873.44
2023-04-09T17:09:10.895Z,99873.81
2023-04-09T17:14:15.427Z,99873.44
2023-04-09T17:19:18.534Z,99875.44
2023-04-09T17:24:21.470Z,99881.53
2023-04-09T17:29:25.771Z,99882.31
2023-04-09T17:34:28.955Z,99877.66
2023-04-09T17:39:32.073Z,99889.94
2023-04-09T17:44:36.997Z,99895.75
2023-04-09T17:49:40.323Z,99888.91
2023-04-09T17:54:45.464Z,99890.09
2023-04-09T17:59:49.999Z,99893.22
2023-04-09T18:04:53.124Z,99891.94
2023-04-09T18:09:56.233Z,99896.50
2023-04-09T18:15:00.504Z,99897.69
2023-04-09T18:20:03.513Z,99894.06
2023-04-09T18:25:07.525Z,99905.75
2023-04-09T18:30:12.924Z,99904.63
2023-04-09T18:35:17.428Z,99916.88
2023-04-09T18:40:20.688Z,99919.13
2023-04-09T18:45:25.488Z,99927.28
2023-04-09T18:50:28.450Z,99929.66
2023-04-09T18:55:31.772Z,99935.91
2023-04-09T19:00:36.572Z,99925.28
2023-04-09T19:05:39.710Z,99931.13
2023-04-09T19:10:42.620Z,99930.91
2023-04-09T19:15:46.964Z,99924.81
2023-04-09T19:20:49.887Z,99919.59
2023-04-09T19:25:55.167Z,99923.19
2023-04-09T19:31:01.397Z,99920.13
2023-04-09T19:36:07.930Z,99924.34
2023-04-09T19:41:10.863Z,99929.75
2023-04-09T19:46:15.434Z,99923.34
2023-04-09T19:51:18.656Z,99920.84
2023-04-09T19:56:22.119Z,99920.13
2023-04-09T20:01:26.764Z,99928.56
2023-04-09T20:06:30.760Z,99916.59
2023-04-09T20:11:33.710Z,99928.94
2023-04-09T20:16:38.249Z,99935.53
2023-04-09T20:21:41.969Z,99931.09
2023-04-09T20:26:44.912Z,99937.00
2023-04-09T20:31:49.330Z,99925.56
2023-04-09T20:36:52.344Z,99923.03
2023-04-09T20:41:56.554Z,99936.72
2023-04-09T20:47:01.137Z,99924.09
2023-04-09T20:52:04.074Z,99914.72
2023-04-09T20:57:07.173Z,99923.91
2023-04-09T21:07:16.671Z,99931.22
2023-04-09T21:12:19.600Z,99928.88
2023-04-09T21:17:23.911Z,99929.56
2023-04-09T21:22:26.828Z,99925.22
2023-04-09T21:27:29.767Z,99937.03
2023-04-09T21:32:34.109Z,99942.72
2023-04-09T21:37:37.640Z,99950.84
2023-04-09T21:42:40.657Z,99941.22
2023-04-09T21:47:45.480Z,99940.47
2023-04-09T21:52:48.470Z,99932.50
2023-04-09T21:57:53.591Z,99933.00
2023-04-09T22:03:01.264Z,99935.75
2023-04-09T22:08:04.424Z,99938.72
2023-04-09T22:13:07.747Z,99939.72
2023-04-09T22:18:11.988Z,99928.38
2023-04-09T22:23:14.864Z,99929.31
2023-04-09T22:28:17.805Z,99929.03
2023-04-09T22:33:22.076Z,99937.50
2023-04-09T22:38:25.376Z,99937.19
2023-04-09T22:43:28.505Z,99930.66
2023-04-09T22:48:35.887Z,99927.75
2023-04-09T22:53:43.876Z,99925.00
2023-04-09T22:58:46.815Z,99937.81
2023-04-09T23:03:51.640Z,99934.84
2023-04-09T23:08:54.790Z,99942.66
2023-04-09T23:13:57.876Z,99934.81
2023-04-09T23:19:02.106Z,99922.63
2023-04-09T23:24:05.410Z,99925.31
2023-04-09T23:29:08.317Z,99914.44
2023-04-09T23:34:13.005Z,99906.13
2023-04-09T23:39:15.935Z,99913.59
2023-04-09T23:44:18.783Z,99919.09
2023-04-09T23:49:23.161Z,99929.00
2023-04-09T23:54:26.055Z,99931.69
2023-04-09T23:59:31.131Z,99923.22
